sensor_id;sensor_type;location;lat;lon;timestamp;temperature;humidity
15009;DHT22;7600;51.834;9.448;2022-07-03T00:00:06;17.80;99.90
15009;DHT22;7600;51.834;9.448;2022-07-03T00:00:42;17.80;99.90
15009;DHT22;7600;51.834;9.448;2022-07-03T00:01:13;17.90;99.90
15009;DHT22;7600;51.834;9.448;2022-07-03T00:01:44;17.90;99.90
15009;DHT22;7600;51.834;9.448;2022-07-03T00:02:15;17.80;99.90
15009;DHT22;7600;51.834;9.448;2022-07-03T00:02:46;17.80;99.90
15009;DHT22;7600;51.834;9.448;2022-07-03T00:03:17;17.90;99.90
15009;DHT22;7600;51.834;9.448;2022-07-03T00:03:48;17.90;99.90
15009;DHT22;7600;51.834;9.448;2022-07-03T00:04:19;17.90;99.90
15009;DHT22;7600;51.834;9.448;2022-07-03T00:04:50;17.90;99.90
15009;DHT22;7600;51.834;9.448;2022-07-03T00:05:21;17.90;99.90
15009;DHT22;7600;51.834;9.448;2022-07-03T00:05:53;17.90;99.90
15009;DHT22;7600;51.834;9.448;2022-07-03T00:06:27;17.90;99.90
15009;DHT22;7600;51.834;9.448;2022-07-03T00:07:01;17.90;99.90
15009;DHT22;7600;51.834;9.448;2022-07-03T00:07:32;17.90;99.90
15009;DHT22;7600;51.834;9.448;2022-07-03T00:08:04;17.90;99.90
15009;DHT22;7600;51.834;9.448;2022-07-03T00:08:35;17.90;99.90
15009;DHT22;7600;51.834;9.448;2022-07-03T00:09:07;17.90;99.90
15009;DHT22;7600;51.834;9.448;2022-07-03T00:09:38;17.90;99.90
15009;DHT22;7600;51.834;9.448;2022-07-03T00:10:09;17.90;99.90
15009;DHT22;7600;51.834;9.448;2022-07-03T00:10:40;17.90;99.90
15009;DHT22;7600;51.834;9.448;2022-07-03T00:11:11;17.90;99.90
15009;DHT22;7600;51.834;9.448;2022-07-03T00:11:43;17.90;99.90
15009;DHT22;7600;51.834;9.448;2022-07-03T00:12:14;17.90;99.90
15009;DHT22;7600;51.834;9.448;2022-07-03T00:12:44;18.00;99.90
15009;DHT22;7600;51.834;9.448;2022-07-03T00:13:16;17.90;99.90
15009;DHT22;7600;51.834;9.448;2022-07-03T00:13:47;18.00;99.90
15009;DHT22;7600;51.834;9.448;2022-07-03T00:14:17;17.90;99.90
15009;DHT22;7600;51.834;9.448;2022-07-03T00:14:49;17.90;99.90
15009;DHT22;7600;51.834;9.448;2022-07-03T00:15:21;17.90;99.90
15009;DHT22;7600;51.834;9.448;2022-07-03T00:15:52;17.90;99.90
15009;DHT22;7600;51.834;9.448;2022-07-03T00:16:23;17.90;99.90
15009;DHT22;7600;51.834;9.448;2022-07-03T00:16:54;17.90;99.90
15009;DHT22;7600;51.834;9.448;2022-07-03T00:17:25;17.90;99.90
15009;DHT22;7600;51.834;9.448;2022-07-03T00:17:57;17.90;99.90
15009;DHT22;7600;51.834;9.448;2022-07-03T00:18:27;17.90;99.90
15009;DHT22;7600;51.834;9.448;2022-07-03T00:18:58;17.90;99.90
15009;DHT22;7600;51.834;9.448;2022-07-03T00:19:29;17.90;99.90
15009;DHT22;7600;51.834;9.448;2022-07-03T00:20:00;17.90;99.90
15009;DHT22;7600;51.834;9.448;2022-07-03T00:20:34;17.90;99.90
15009;DHT22;7600;51.834;9.448;2022-07-03T00:21:08;17.90;99.90
15009;DHT22;7600;51.834;9.448;2022-07-03T00:21:43;17.90;99.90
15009;DHT22;7600;51.834;9.448;2022-07-03T00:22:15;17.90;99.90
15009;DHT22;7600;51.834;9.448;2022-07-03T00:22:46;17.90;99.90
15009;DHT22;7600;51.834;9.448;2022-07-03T00:23:19;17.90;99.90
15009;DHT22;7600;51.834;9.448;2022-07-03T00:23:54;17.90;99.90
15009;DHT22;7600;51.834;9.448;2022-07-03T00:24:26;17.90;99.90
15009;DHT22;7600;51.834;9.448;2022-07-03T00:25:00;17.90;99.90
15009;DHT22;7600;51.834;9.448;2022-07-03T00:25:31;17.90;99.90
15009;DHT22;7600;51.834;9.448;2022-07-03T00:26:03;17.90;99.90
15009;DHT22;7600;51.834;9.448;2022-07-03T00:26:36;17.90;99.90
15009;DHT22;7600;51.834;9.448;2022-07-03T00:27:09;17.80;99.90
15009;DHT22;7600;51.834;9.448;2022-07-03T00:27:40;17.80;99.90
15009;DHT22;7600;51.834;9.448;2022-07-03T00:28:13;17.80;99.90
15009;DHT22;7600;51.834;9.448;2022-07-03T00:28:45;17.80;99.90
15009;DHT22;7600;51.834;9.448;2022-07-03T00:29:16;17.80;99.90
15009;DHT22;7600;51.834;9.448;2022-07-03T00:29:48;17.80;99.90
15009;DHT22;7600;51.834;9.448;2022-07-03T00:30:20;17.80;99.90
15009;DHT22;7600;51.834;9.448;2022-07-03T00:30:51;17.80;99.90
15009;DHT22;7600;51.834;9.448;2022-07-03T00:31:22;17.80;99.90
15009;DHT22;7600;51.834;9.448;2022-07-03T00:31:54;17.80;99.90
15009;DHT22;7600;51.834;9.448;2022-07-03T00:32:25;17.80;99.90
15009;DHT22;7600;51.834;9.448;2022-07-03T00:32:56;17.80;99.90
15009;DHT22;7600;51.834;9.448;2022-07-03T00:33:28;17.80;99.90
15009;DHT22;7600;51.834;9.448;2022-07-03T00:34:00;17.80;99.90
15009;DHT22;7600;51.834;9.448;2022-07-03T00:34:31;17.70;99.90
15009;DHT22;7600;51.834;9.448;2022-07-03T00:35:04;17.80;99.90
15009;DHT22;7600;51.834;9.448;2022-07-03T00:35:35;17.80;99.90
15009;DHT22;7600;51.834;9.448;2022-07-03T00:36:07;17.80;99.90
15009;DHT22;7600;51.834;9.448;2022-07-03T00:36:38;17.80;99.90
15009;DHT22;7600;51.834;9.448;2022-07-03T00:37:09;17.80;99.90
15009;DHT22;7600;51.834;9.448;2022-07-03T00:37:41;17.80;99.90
15009;DHT22;7600;51.834;9.448;2022-07-03T00:38:12;17.80;99.90
15009;DHT22;7600;51.834;9.448;2022-07-03T00:38:44;17.80;99.90
15009;DHT22;7600;51.834;9.448;2022-07-03T00:39:15;17.80;99.90
15009;DHT22;7600;51.834;9.448;2022-07-03T00:39:46;17.80;99.90
15009;DHT22;7600;51.834;9.448;2022-07-03T00:40:18;17.70;99.90
15009;DHT22;7600;51.834;9.448;2022-07-03T00:40:50;17.70;99.90
15009;DHT22;7600;51.834;9.448;2022-07-03T00:41:25;17.70;99.90
15009;DHT22;7600;51.834;9.448;2022-07-03T00:41:59;17.70;99.90
15009;DHT22;7600;51.834;9.448;2022-07-03T00:42:31;17.70;99.90
15009;DHT22;7600;51.834;9.448;2022-07-03T00:43:02;17.70;99.90
15009;DHT22;7600;51.834;9.448;2022-07-03T00:43:35;17.70;99.90
15009;DHT22;7600;51.834;9.448;2022-07-03T00:44:06;17.70;99.90
15009;DHT22;7600;51.834;9.448;2022-07-03T00:44:42;17.70;99.90
15009;DHT22;7600;51.834;9.448;2022-07-03T00:45:14;17.60;99.90
15009;DHT22;7600;51.834;9.448;2022-07-03T00:45:47;17.70;99.90
15009;DHT22;7600;51.834;9.448;2022-07-03T00:46:17;17.70;99.90
15009;DHT22;7600;51.834;9.448;2022-07-03T00:46:52;17.70;99.90
15009;DHT22;7600;51.834;9.448;2022-07-03T00:47:25;17.60;99.90
15009;DHT22;7600;51.834;9.448;2022-07-03T00:47:56;17.60;99.90
15009;DHT22;7600;51.834;9.448;2022-07-03T00:48:27;17.60;99.90
15009;DHT22;7600;51.834;9.448;2022-07-03T00:48:59;17.60;99.90
15009;DHT22;7600;51.834;9.448;2022-07-03T00:49:33;17.60;99.90
15009;DHT22;7600;51.834;9.448;2022-07-03T00:50:05;17.50;99.90
15009;DHT22;7600;51.834;9.448;2022-07-03T00:50:36;17.50;99.90
15009;DHT22;7600;51.834;9.448;2022-07-03T00:51:08;17.50;99.90
15009;DHT22;7600;51.834;9.448;2022-07-03T00:51:41;17.50;99.90
15009;DHT22;7600;51.834;9.448;2022-07-03T00:52:14;17.40;99.90
15009;DHT22;7600;51.834;9.448;2022-07-03T00:52:46;17.40;99.90
15009;DHT22;7600;51.834;9.448;2022-07-03T00:53:17;17.50;99.90
15009;DHT22;7600;51.834;9.448;2022-07-03T00:53:52;17.50;99.90
15009;DHT22;7600;51.834;9.448;2022-07-03T00:54:23;17.50;99.90
15009;DHT22;7600;51.834;9.448;2022-07-03T00:54:56;17.50;99.90
15009;DHT22;7600;51.834;9.448;2022-07-03T00:55:27;17.50;99.90
15009;DHT22;7600;51.834;9.448;2022-07-03T00:55:58;17.50;99.90
15009;DHT22;7600;51.834;9.448;2022-07-03T00:56:30;17.50;99.90
15009;DHT22;7600;51.834;9.448;2022-07-03T00:57:02;17.50;99.90
15009;DHT22;7600;51.834;9.448;2022-07-03T00:57:33;17.50;99.90
15009;DHT22;7600;51.834;9.448;2022-07-03T00:58:06;17.50;99.90
15009;DHT22;7600;51.834;9.448;2022-07-03T00:58:37;17.50;99.90
15009;DHT22;7600;51.834;9.448;2022-07-03T00:59:08;17.40;99.90
15009;DHT22;7600;51.834;9.448;2022-07-03T00:59:40;17.50;99.90
15009;DHT22;7600;51.834;9.448;2022-07-03T01:00:12;17.40;99.90
15009;DHT22;7600;51.834;9.448;2022-07-03T01:00:43;17.40;99.90
15009;DHT22;7600;51.834;9.448;2022-07-03T01:01:16;17.40;99.90
15009;DHT22;7600;51.834;9.448;2022-07-03T01:01:46;17.40;99.90
15009;DHT22;7600;51.834;9.448;2022-07-03T01:02:22;17.40;99.90
15009;DHT22;7600;51.834;9.448;2022-07-03T01:02:59;17.30;99.90
15009;DHT22;7600;51.834;9.448;2022-07-03T01:03:32;17.30;99.90
15009;DHT22;7600;51.834;9.448;2022-07-03T01:04:10;17.30;99.90
15009;DHT22;7600;51.834;9.448;2022-07-03T01:04:45;17.30;99.90
15009;DHT22;7600;51.834;9.448;2022-07-03T01:05:24;17.30;99.90
15009;DHT22;7600;51.834;9.448;2022-07-03T01:05:56;17.20;99.90
15009;DHT22;7600;51.834;9.448;2022-07-03T01:06:33;17.30;99.90
15009;DHT22;7600;51.834;9.448;2022-07-03T01:07:05;17.30;99.90
15009;DHT22;7600;51.834;9.448;2022-07-03T01:07:39;17.30;99.90
15009;DHT22;7600;51.834;9.448;2022-07-03T01:08:16;17.30;99.90
15009;DHT22;7600;51.834;9.448;2022-07-03T01:08:50;17.20;99.90
15009;DHT22;7600;51.834;9.448;2022-07-03T01:09:26;17.20;99.90
15009;DHT22;7600;51.834;9.448;2022-07-03T01:10:00;17.20;99.90
15009;DHT22;7600;51.834;9.448;2022-07-03T01:10:36;17.20;99.90
15009;DHT22;7600;51.834;9.448;2022-07-03T01:11:10;17.20;99.90
15009;DHT22;7600;51.834;9.448;2022-07-03T01:11:46;17.20;99.90
15009;DHT22;7600;51.834;9.448;2022-07-03T01:12:20;17.20;99.90
15009;DHT22;7600;51.834;9.448;2022-07-03T01:12:56;17.10;99.90
15009;DHT22;7600;51.834;9.448;2022-07-03T01:13:34;17.10;99.90
15009;DHT22;7600;51.834;9.448;2022-07-03T01:14:13;17.10;99.90
15009;DHT22;7600;51.834;9.448;2022-07-03T01:14:47;17.10;99.90
15009;DHT22;7600;51.834;9.448;2022-07-03T01:15:26;17.10;99.90
15009;DHT22;7600;51.834;9.448;2022-07-03T01:16:02;17.10;99.90
15009;DHT22;7600;51.834;9.448;2022-07-03T01:16:36;17.10;99.90
15009;DHT22;7600;51.834;9.448;2022-07-03T01:17:10;17.10;99.90
15009;DHT22;7600;51.834;9.448;2022-07-03T01:17:44;17.10;99.90
15009;DHT22;7600;51.834;9.448;2022-07-03T01:18:23;17.10;99.90
15009;DHT22;7600;51.834;9.448;2022-07-03T01:18:54;17.10;99.90
15009;DHT22;7600;51.834;9.448;2022-07-03T01:19:36;17.20;99.90
15009;DHT22;7600;51.834;9.448;2022-07-03T01:20:07;17.10;99.90
15009;DHT22;7600;51.834;9.448;2022-07-03T01:20:38;17.20;99.90
15009;DHT22;7600;51.834;9.448;2022-07-03T01:21:10;17.10;99.90
15009;DHT22;7600;51.834;9.448;2022-07-03T01:21:47;17.10;99.90
15009;DHT22;7600;51.834;9.448;2022-07-03T01:22:31;17.10;99.90
15009;DHT22;7600;51.834;9.448;2022-07-03T01:23:02;17.10;99.90
15009;DHT22;7600;51.834;9.448;2022-07-03T01:23:46;17.10;99.90
15009;DHT22;7600;51.834;9.448;2022-07-03T01:24:33;17.10;99.90
15009;DHT22;7600;51.834;9.448;2022-07-03T01:25:12;17.10;99.90
15009;DHT22;7600;51.834;9.448;2022-07-03T01:25:45;17.10;99.90
15009;DHT22;7600;51.834;9.448;2022-07-03T01:26:17;17.00;99.90
15009;DHT22;7600;51.834;9.448;2022-07-03T01:26:48;17.00;99.90
15009;DHT22;7600;51.834;9.448;2022-07-03T01:27:22;17.00;99.90
15009;DHT22;7600;51.834;9.448;2022-07-03T01:27:57;16.90;99.90
15009;DHT22;7600;51.834;9.448;2022-07-03T01:28:29;16.90;99.90
15009;DHT22;7600;51.834;9.448;2022-07-03T01:29:02;16.90;99.90
15009;DHT22;7600;51.834;9.448;2022-07-03T01:29:35;16.80;99.90
15009;DHT22;7600;51.834;9.448;2022-07-03T01:30:09;16.80;99.90
15009;DHT22;7600;51.834;9.448;2022-07-03T01:30:42;16.90;99.90
15009;DHT22;7600;51.834;9.448;2022-07-03T01:31:13;16.80;99.90
15009;DHT22;7600;51.834;9.448;2022-07-03T01:31:48;16.80;99.90
15009;DHT22;7600;51.834;9.448;2022-07-03T01:32:21;16.80;99.90
15009;DHT22;7600;51.834;9.448;2022-07-03T01:32:56;16.80;99.90
15009;DHT22;7600;51.834;9.448;2022-07-03T01:33:31;16.80;99.90
15009;DHT22;7600;51.834;9.448;2022-07-03T01:34:03;16.80;99.90
15009;DHT22;7600;51.834;9.448;2022-07-03T01:34:37;16.80;99.90
15009;DHT22;7600;51.834;9.448;2022-07-03T01:35:11;16.80;99.90
15009;DHT22;7600;51.834;9.448;2022-07-03T01:35:47;16.80;99.90
15009;DHT22;7600;51.834;9.448;2022-07-03T01:36:18;16.80;99.90
15009;DHT22;7600;51.834;9.448;2022-07-03T01:36:52;16.80;99.90
15009;DHT22;7600;51.834;9.448;2022-07-03T01:37:24;16.80;99.90
15009;DHT22;7600;51.834;9.448;2022-07-03T01:38:00;16.80;99.90
15009;DHT22;7600;51.834;9.448;2022-07-03T01:38:33;16.80;99.90
15009;DHT22;7600;51.834;9.448;2022-07-03T01:39:04;16.80;99.90
15009;DHT22;7600;51.834;9.448;2022-07-03T01:39:36;16.80;99.90
15009;DHT22;7600;51.834;9.448;2022-07-03T01:40:08;16.80;99.90
15009;DHT22;7600;51.834;9.448;2022-07-03T01:40:40;16.70;99.90
15009;DHT22;7600;51.834;9.448;2022-07-03T01:41:13;16.70;99.90
15009;DHT22;7600;51.834;9.448;2022-07-03T01:41:44;16.70;99.90
15009;DHT22;7600;51.834;9.448;2022-07-03T01:42:15;16.60;99.90
15009;DHT22;7600;51.834;9.448;2022-07-03T01:42:46;16.60;99.90
15009;DHT22;7600;51.834;9.448;2022-07-03T01:43:18;16.60;99.90
15009;DHT22;7600;51.834;9.448;2022-07-03T01:43:52;16.60;99.90
15009;DHT22;7600;51.834;9.448;2022-07-03T01:44:25;16.60;99.90
15009;DHT22;7600;51.834;9.448;2022-07-03T01:44:58;16.60;99.90
15009;DHT22;7600;51.834;9.448;2022-07-03T01:45:30;16.60;99.90
15009;DHT22;7600;51.834;9.448;2022-07-03T01:46:01;16.60;99.90
15009;DHT22;7600;51.834;9.448;2022-07-03T01:46:33;16.60;99.90
15009;DHT22;7600;51.834;9.448;2022-07-03T01:47:04;16.60;99.90
15009;DHT22;7600;51.834;9.448;2022-07-03T01:47:36;16.50;99.90
15009;DHT22;7600;51.834;9.448;2022-07-03T01:48:10;16.50;99.90
15009;DHT22;7600;51.834;9.448;2022-07-03T01:48:43;16.50;99.90
15009;DHT22;7600;51.834;9.448;2022-07-03T01:49:13;16.50;99.90
15009;DHT22;7600;51.834;9.448;2022-07-03T01:49:45;16.50;99.90
15009;DHT22;7600;51.834;9.448;2022-07-03T01:50:17;16.50;99.90
15009;DHT22;7600;51.834;9.448;2022-07-03T01:50:51;16.50;99.90
15009;DHT22;7600;51.834;9.448;2022-07-03T01:51:22;16.50;99.90
15009;DHT22;7600;51.834;9.448;2022-07-03T01:51:54;16.50;99.90
15009;DHT22;7600;51.834;9.448;2022-07-03T01:52:26;16.50;99.90
15009;DHT22;7600;51.834;9.448;2022-07-03T01:52:59;16.50;99.90
15009;DHT22;7600;51.834;9.448;2022-07-03T01:53:32;16.40;99.90
15009;DHT22;7600;51.834;9.448;2022-07-03T01:54:03;16.40;99.90
15009;DHT22;7600;51.834;9.448;2022-07-03T01:54:34;16.40;99.90
15009;DHT22;7600;51.834;9.448;2022-07-03T01:55:07;16.50;99.90
15009;DHT22;7600;51.834;9.448;2022-07-03T01:55:39;16.50;99.90
15009;DHT22;7600;51.834;9.448;2022-07-03T01:56:09;16.50;99.90
15009;DHT22;7600;51.834;9.448;2022-07-03T01:56:43;16.50;99.90
15009;DHT22;7600;51.834;9.448;2022-07-03T01:57:15;16.50;99.90
15009;DHT22;7600;51.834;9.448;2022-07-03T01:57:47;16.50;99.90
15009;DHT22;7600;51.834;9.448;2022-07-03T01:58:19;16.50;99.90
15009;DHT22;7600;51.834;9.448;2022-07-03T01:58:50;16.50;99.90
15009;DHT22;7600;51.834;9.448;2022-07-03T01:59:21;16.50;99.90
15009;DHT22;7600;51.834;9.448;2022-07-03T01:59:52;16.40;99.90
15009;DHT22;7600;51.834;9.448;2022-07-03T02:00:26;16.40;99.90
15009;DHT22;7600;51.834;9.448;2022-07-03T02:01:02;16.40;99.90
15009;DHT22;7600;51.834;9.448;2022-07-03T02:01:37;16.40;99.90
15009;DHT22;7600;51.834;9.448;2022-07-03T02:02:13;16.40;99.90
15009;DHT22;7600;51.834;9.448;2022-07-03T02:02:45;16.40;99.90
15009;DHT22;7600;51.834;9.448;2022-07-03T02:03:21;16.40;99.90
15009;DHT22;7600;51.834;9.448;2022-07-03T02:03:56;16.40;99.90
15009;DHT22;7600;51.834;9.448;2022-07-03T02:04:32;16.40;99.90
15009;DHT22;7600;51.834;9.448;2022-07-03T02:05:06;16.40;99.90
15009;DHT22;7600;51.834;9.448;2022-07-03T02:05:41;16.40;99.90
15009;DHT22;7600;51.834;9.448;2022-07-03T02:06:15;16.40;99.90
15009;DHT22;7600;51.834;9.448;2022-07-03T02:06:51;16.40;99.90
15009;DHT22;7600;51.834;9.448;2022-07-03T02:07:28;16.40;99.90
15009;DHT22;7600;51.834;9.448;2022-07-03T02:08:15;16.40;99.90
15009;DHT22;7600;51.834;9.448;2022-07-03T02:08:50;16.50;99.90
15009;DHT22;7600;51.834;9.448;2022-07-03T02:09:27;16.50;99.90
15009;DHT22;7600;51.834;9.448;2022-07-03T02:10:02;16.50;99.90
15009;DHT22;7600;51.834;9.448;2022-07-03T02:10:34;16.50;99.90
15009;DHT22;7600;51.834;9.448;2022-07-03T02:11:08;16.50;99.90
15009;DHT22;7600;51.834;9.448;2022-07-03T02:11:40;16.50;99.90
15009;DHT22;7600;51.834;9.448;2022-07-03T02:12:13;16.50;99.90
15009;DHT22;7600;51.834;9.448;2022-07-03T02:12:45;16.50;99.90
15009;DHT22;7600;51.834;9.448;2022-07-03T02:13:19;16.50;99.90
15009;DHT22;7600;51.834;9.448;2022-07-03T02:13:55;16.50;99.90
15009;DHT22;7600;51.834;9.448;2022-07-03T02:14:31;16.50;99.90
15009;DHT22;7600;51.834;9.448;2022-07-03T02:15:03;16.50;99.90
15009;DHT22;7600;51.834;9.448;2022-07-03T02:15:35;16.50;99.90
15009;DHT22;7600;51.834;9.448;2022-07-03T02:16:07;16.50;99.90
15009;DHT22;7600;51.834;9.448;2022-07-03T02:16:43;16.50;99.90
15009;DHT22;7600;51.834;9.448;2022-07-03T02:17:19;16.50;99.90
15009;DHT22;7600;51.834;9.448;2022-07-03T02:17:51;16.40;99.90
15009;DHT22;7600;51.834;9.448;2022-07-03T02:18:25;16.40;99.90
15009;DHT22;7600;51.834;9.448;2022-07-03T02:18:57;16.40;99.90
15009;DHT22;7600;51.834;9.448;2022-07-03T02:19:30;16.40;99.90
15009;DHT22;7600;51.834;9.448;2022-07-03T02:20:05;16.40;99.90
15009;DHT22;7600;51.834;9.448;2022-07-03T02:20:38;16.40;99.90
15009;DHT22;7600;51.834;9.448;2022-07-03T02:21:13;16.40;99.90
15009;DHT22;7600;51.834;9.448;2022-07-03T02:21:46;16.40;99.90
15009;DHT22;7600;51.834;9.448;2022-07-03T02:22:17;16.40;99.90
15009;DHT22;7600;51.834;9.448;2022-07-03T02:22:51;16.40;99.90
15009;DHT22;7600;51.834;9.448;2022-07-03T02:23:23;16.30;99.90
15009;DHT22;7600;51.834;9.448;2022-07-03T02:24:03;16.30;99.90
15009;DHT22;7600;51.834;9.448;2022-07-03T02:24:37;16.30;99.90
15009;DHT22;7600;51.834;9.448;2022-07-03T02:25:15;16.30;99.90
15009;DHT22;7600;51.834;9.448;2022-07-03T02:25:48;16.30;99.90
15009;DHT22;7600;51.834;9.448;2022-07-03T02:26:24;16.30;99.90
15009;DHT22;7600;51.834;9.448;2022-07-03T02:26:59;16.20;99.90
15009;DHT22;7600;51.834;9.448;2022-07-03T02:27:38;16.20;99.90
15009;DHT22;7600;51.834;9.448;2022-07-03T02:28:12;16.20;99.90
15009;DHT22;7600;51.834;9.448;2022-07-03T02:28:50;16.10;99.90
15009;DHT22;7600;51.834;9.448;2022-07-03T02:29:26;16.10;99.90
15009;DHT22;7600;51.834;9.448;2022-07-03T02:29:59;16.10;99.90
15009;DHT22;7600;51.834;9.448;2022-07-03T02:30:33;16.00;99.90
15009;DHT22;7600;51.834;9.448;2022-07-03T02:31:06;16.10;99.90
15009;DHT22;7600;51.834;9.448;2022-07-03T02:31:42;16.10;99.90
15009;DHT22;7600;51.834;9.448;2022-07-03T02:32:16;16.10;99.90
15009;DHT22;7600;51.834;9.448;2022-07-03T02:32:49;16.10;99.90
15009;DHT22;7600;51.834;9.448;2022-07-03T02:33:21;16.10;99.90
15009;DHT22;7600;51.834;9.448;2022-07-03T02:33:56;16.10;99.90
15009;DHT22;7600;51.834;9.448;2022-07-03T02:34:27;16.10;99.90
15009;DHT22;7600;51.834;9.448;2022-07-03T02:35:00;16.10;99.90
15009;DHT22;7600;51.834;9.448;2022-07-03T02:35:33;16.10;99.90
15009;DHT22;7600;51.834;9.448;2022-07-03T02:36:04;16.10;99.90
15009;DHT22;7600;51.834;9.448;2022-07-03T02:36:35;16.10;99.90
15009;DHT22;7600;51.834;9.448;2022-07-03T02:37:09;16.10;99.90
15009;DHT22;7600;51.834;9.448;2022-07-03T02:37:44;16.20;99.90
15009;DHT22;7600;51.834;9.448;2022-07-03T02:38:16;16.20;99.90
15009;DHT22;7600;51.834;9.448;2022-07-03T02:38:51;16.20;99.90
15009;DHT22;7600;51.834;9.448;2022-07-03T02:39:23;16.20;99.90
15009;DHT22;7600;51.834;9.448;2022-07-03T02:39:57;16.20;99.90
15009;DHT22;7600;51.834;9.448;2022-07-03T02:40:31;16.20;99.90
15009;DHT22;7600;51.834;9.448;2022-07-03T02:41:07;16.20;99.90
15009;DHT22;7600;51.834;9.448;2022-07-03T02:41:39;16.20;99.90
15009;DHT22;7600;51.834;9.448;2022-07-03T02:42:16;16.20;99.90
15009;DHT22;7600;51.834;9.448;2022-07-03T02:42:56;16.20;99.90
15009;DHT22;7600;51.834;9.448;2022-07-03T02:43:31;16.20;99.90
15009;DHT22;7600;51.834;9.448;2022-07-03T02:44:04;16.20;99.90
15009;DHT22;7600;51.834;9.448;2022-07-03T02:44:40;16.20;99.90
15009;DHT22;7600;51.834;9.448;2022-07-03T02:45:12;16.10;99.90
15009;DHT22;7600;51.834;9.448;2022-07-03T02:45:45;16.20;99.90
15009;DHT22;7600;51.834;9.448;2022-07-03T02:46:22;16.20;99.90
15009;DHT22;7600;51.834;9.448;2022-07-03T02:47:14;16.20;99.90
15009;DHT22;7600;51.834;9.448;2022-07-03T02:47:51;16.20;99.90
15009;DHT22;7600;51.834;9.448;2022-07-03T02:48:27;16.20;99.90
15009;DHT22;7600;51.834;9.448;2022-07-03T02:49:02;16.20;99.90
15009;DHT22;7600;51.834;9.448;2022-07-03T02:49:41;16.20;99.90
15009;DHT22;7600;51.834;9.448;2022-07-03T02:50:15;16.20;99.90
15009;DHT22;7600;51.834;9.448;2022-07-03T02:50:47;16.20;99.90
15009;DHT22;7600;51.834;9.448;2022-07-03T02:51:22;16.20;99.90
15009;DHT22;7600;51.834;9.448;2022-07-03T02:52:01;16.20;99.90
15009;DHT22;7600;51.834;9.448;2022-07-03T02:52:34;16.20;99.90
15009;DHT22;7600;51.834;9.448;2022-07-03T02:53:15;16.20;99.90
15009;DHT22;7600;51.834;9.448;2022-07-03T02:53:52;16.20;99.90
15009;DHT22;7600;51.834;9.448;2022-07-03T02:54:23;16.20;99.90
15009;DHT22;7600;51.834;9.448;2022-07-03T02:54:57;16.20;99.90
15009;DHT22;7600;51.834;9.448;2022-07-03T02:55:39;16.20;99.90
15009;DHT22;7600;51.834;9.448;2022-07-03T02:56:14;16.20;99.90
15009;DHT22;7600;51.834;9.448;2022-07-03T02:56:48;16.10;99.90
15009;DHT22;7600;51.834;9.448;2022-07-03T02:57:23;16.10;99.90
15009;DHT22;7600;51.834;9.448;2022-07-03T02:57:57;16.10;99.90
15009;DHT22;7600;51.834;9.448;2022-07-03T02:58:35;16.10;99.90
15009;DHT22;7600;51.834;9.448;2022-07-03T02:59:12;16.10;99.90
15009;DHT22;7600;51.834;9.448;2022-07-03T02:59:45;16.10;99.90
15009;DHT22;7600;51.834;9.448;2022-07-03T03:00:22;16.10;99.90
15009;DHT22;7600;51.834;9.448;2022-07-03T03:00:57;16.10;99.90
15009;DHT22;7600;51.834;9.448;2022-07-03T03:01:30;16.10;99.90
15009;DHT22;7600;51.834;9.448;2022-07-03T03:02:07;16.10;99.90
15009;DHT22;7600;51.834;9.448;2022-07-03T03:02:45;16.10;99.90
15009;DHT22;7600;51.834;9.448;2022-07-03T03:03:22;16.10;99.90
15009;DHT22;7600;51.834;9.448;2022-07-03T03:03:59;16.10;99.90
15009;DHT22;7600;51.834;9.448;2022-07-03T03:04:33;16.10;99.90
15009;DHT22;7600;51.834;9.448;2022-07-03T03:05:06;16.10;99.90
15009;DHT22;7600;51.834;9.448;2022-07-03T03:05:40;16.10;99.90
15009;DHT22;7600;51.834;9.448;2022-07-03T03:06:13;16.10;99.90
15009;DHT22;7600;51.834;9.448;2022-07-03T03:06:47;16.10;99.90
15009;DHT22;7600;51.834;9.448;2022-07-03T03:07:20;16.10;99.90
15009;DHT22;7600;51.834;9.448;2022-07-03T03:08:10;16.10;99.90
15009;DHT22;7600;51.834;9.448;2022-07-03T03:08:43;16.10;99.90
15009;DHT22;7600;51.834;9.448;2022-07-03T03:09:19;16.10;99.90
15009;DHT22;7600;51.834;9.448;2022-07-03T03:09:50;16.10;99.90
15009;DHT22;7600;51.834;9.448;2022-07-03T03:10:22;16.10;99.90
15009;DHT22;7600;51.834;9.448;2022-07-03T03:10:52;16.10;99.90
15009;DHT22;7600;51.834;9.448;2022-07-03T03:11:29;16.10;99.90
15009;DHT22;7600;51.834;9.448;2022-07-03T03:12:03;16.10;99.90
15009;DHT22;7600;51.834;9.448;2022-07-03T03:12:36;16.10;99.90
15009;DHT22;7600;51.834;9.448;2022-07-03T03:13:09;16.10;99.90
15009;DHT22;7600;51.834;9.448;2022-07-03T03:13:41;16.20;99.90
15009;DHT22;7600;51.834;9.448;2022-07-03T03:14:19;16.20;99.90
15009;DHT22;7600;51.834;9.448;2022-07-03T03:14:53;16.20;99.90
15009;DHT22;7600;51.834;9.448;2022-07-03T03:15:29;16.20;99.90
15009;DHT22;7600;51.834;9.448;2022-07-03T03:16:02;16.20;99.90
15009;DHT22;7600;51.834;9.448;2022-07-03T03:16:35;16.10;99.90
15009;DHT22;7600;51.834;9.448;2022-07-03T03:17:06;16.20;99.90
15009;DHT22;7600;51.834;9.448;2022-07-03T03:17:39;16.10;99.90
15009;DHT22;7600;51.834;9.448;2022-07-03T03:18:12;16.10;99.90
15009;DHT22;7600;51.834;9.448;2022-07-03T03:18:43;16.10;99.90
15009;DHT22;7600;51.834;9.448;2022-07-03T03:19:15;16.10;99.90
15009;DHT22;7600;51.834;9.448;2022-07-03T03:19:51;16.00;99.90
15009;DHT22;7600;51.834;9.448;2022-07-03T03:20:25;16.10;99.90
15009;DHT22;7600;51.834;9.448;2022-07-03T03:20:58;16.10;99.90
15009;DHT22;7600;51.834;9.448;2022-07-03T03:21:30;16.10;99.90
15009;DHT22;7600;51.834;9.448;2022-07-03T03:22:03;16.10;99.90
15009;DHT22;7600;51.834;9.448;2022-07-03T03:22:39;16.10;99.90
15009;DHT22;7600;51.834;9.448;2022-07-03T03:23:19;16.10;99.90
15009;DHT22;7600;51.834;9.448;2022-07-03T03:23:53;16.10;99.90
15009;DHT22;7600;51.834;9.448;2022-07-03T03:24:24;16.10;99.90
15009;DHT22;7600;51.834;9.448;2022-07-03T03:24:55;16.10;99.90
15009;DHT22;7600;51.834;9.448;2022-07-03T03:25:27;16.10;99.90
15009;DHT22;7600;51.834;9.448;2022-07-03T03:25:57;16.10;99.90
15009;DHT22;7600;51.834;9.448;2022-07-03T03:26:29;16.10;99.90
15009;DHT22;7600;51.834;9.448;2022-07-03T03:27:02;16.10;99.90
15009;DHT22;7600;51.834;9.448;2022-07-03T03:27:33;16.10;99.90
15009;DHT22;7600;51.834;9.448;2022-07-03T03:28:04;16.10;99.90
15009;DHT22;7600;51.834;9.448;2022-07-03T03:28:36;16.10;99.90
15009;DHT22;7600;51.834;9.448;2022-07-03T03:29:07;16.10;99.90
15009;DHT22;7600;51.834;9.448;2022-07-03T03:29:38;16.10;99.90
15009;DHT22;7600;51.834;9.448;2022-07-03T03:30:10;16.10;99.90
15009;DHT22;7600;51.834;9.448;2022-07-03T03:30:41;16.10;99.90
15009;DHT22;7600;51.834;9.448;2022-07-03T03:31:12;16.20;99.90
15009;DHT22;7600;51.834;9.448;2022-07-03T03:31:43;16.20;99.90
15009;DHT22;7600;51.834;9.448;2022-07-03T03:32:15;16.20;99.90
15009;DHT22;7600;51.834;9.448;2022-07-03T03:32:46;16.20;99.90
15009;DHT22;7600;51.834;9.448;2022-07-03T03:33:17;16.20;99.90
15009;DHT22;7600;51.834;9.448;2022-07-03T03:33:48;16.20;99.90
15009;DHT22;7600;51.834;9.448;2022-07-03T03:34:20;16.20;99.90